Time;durP1;ratioP1;P1;durP2;ratioP2;P2;SDS_P1;SDS_P2;PMS_P1;PMS_P2;Temp;Humidity;BMP_temperature;BMP_pressure;BME280_temperature;BME280_humidity;BME280_pressure;Samples;Min_cycle;Max_cycle;Signal;HPM_P1;HPM_P2
2021/01/20 00:02:05;;;;;;;19.02;11.25;;;7.70;99.90;;;;;;4946941;28;20107;-86
2021/01/20 00:04:31;;;;;;;20.27;10.93;;;7.60;99.90;;;;;;4920177;29;20174;-87
2021/01/20 00:06:57;;;;;;;18.25;10.82;;;7.70;99.90;;;;;;4928902;29;20402;-86
2021/01/20 00:09:23;;;;;;;17.42;10.27;;;7.60;99.90;;;;;;4925827;29;20032;-87
2021/01/20 00:11:49;;;;;;;15.13;10.82;;;7.60;99.90;;;;;;4928865;29;20508;-87
2021/01/20 00:14:15;;;;;;;26.33;11.82;;;7.50;99.90;;;;;;4930657;29;20035;-86
2021/01/20 00:16:42;;;;;;;20.25;10.93;;;7.60;99.90;;;;;;4928819;29;20035;-87
2021/01/20 00:19:08;;;;;;;21.85;11.60;;;7.60;99.90;;;;;;4914928;29;20497;-86
2021/01/20 00:21:35;;;;;;;20.10;11.48;;;7.60;99.90;;;;;;4931284;29;20039;-86
2021/01/20 00:24:01;;;;;;;23.40;11.32;;;7.50;99.90;;;;;;4930700;29;20498;-87
2021/01/20 00:26:27;;;;;;;23.98;11.70;;;7.50;99.90;;;;;;4929977;29;20043;-86
2021/01/20 00:28:53;;;;;;;18.42;11.05;;;7.50;99.90;;;;;;4930446;29;20115;-86
2021/01/20 00:31:19;;;;;;;20.83;12.38;;;7.40;99.90;;;;;;4930642;29;20062;-87
2021/01/20 00:33:45;;;;;;;20.05;12.18;;;7.40;99.90;;;;;;4930086;29;20059;-86
2021/01/20 00:36:10;;;;;;;18.02;10.88;;;7.40;99.90;;;;;;4934542;29;20075;-87
2021/01/20 00:38:36;;;;;;;17.65;10.90;;;7.40;99.90;;;;;;4933623;29;20044;-86
2021/01/20 00:41:03;;;;;;;24.73;12.50;;;7.40;99.90;;;;;;4918278;29;20059;-87
2021/01/20 00:43:29;;;;;;;18.55;9.95;;;7.30;99.90;;;;;;4933394;29;20043;-87
2021/01/20 00:45:55;;;;;;;20.35;11.88;;;7.30;99.90;;;;;;4933730;29;20052;-87
2021/01/20 00:48:21;;;;;;;20.20;11.25;;;7.40;99.90;;;;;;4902690;29;20043;-87
2021/01/20 00:50:47;;;;;;;21.40;10.27;;;7.30;99.90;;;;;;4933415;29;20449;-87
2021/01/20 00:53:13;;;;;;;20.50;11.30;;;7.30;99.90;;;;;;4933588;29;20039;-86
2021/01/20 00:55:40;;;;;;;22.20;10.93;;;7.30;99.90;;;;;;4933231;29;20094;-87
2021/01/20 00:58:05;;;;;;;22.13;12.43;;;7.30;99.90;;;;;;4918127;29;20043;-87
2021/01/20 01:00:31;;;;;;;19.02;11.25;;;7.30;99.90;;;;;;4948783;29;20048;-87
2021/01/20 01:02:57;;;;;;;20.67;10.82;;;7.30;99.90;;;;;;4912343;29;20075;-86
2021/01/20 01:05:23;;;;;;;17.88;10.48;;;7.20;99.90;;;;;;4918422;29;20039;-87
2021/01/20 01:07:48;;;;;;;19.80;11.60;;;7.20;99.90;;;;;;4933305;29;20048;-86
2021/01/20 01:10:15;;;;;;;18.88;10.77;;;7.20;99.90;;;;;;4933905;29;20043;-86
2021/01/20 01:12:41;;;;;;;16.55;10.02;;;7.20;99.90;;;;;;4917023;29;20502;-86
2021/01/20 01:15:07;;;;;;;14.95;9.27;;;7.20;99.90;;;;;;4917463;29;20055;-86
2021/01/20 01:17:33;;;;;;;18.48;9.60;;;7.20;99.90;;;;;;4933112;29;20050;-87
2021/01/20 01:19:59;;;;;;;15.75;9.88;;;7.20;99.90;;;;;;4933443;29;20052;-86
2021/01/20 01:22:25;;;;;;;18.17;9.93;;;7.20;99.90;;;;;;4917746;29;20063;-88
2021/01/20 01:24:51;;;;;;;19.27;10.15;;;7.20;99.90;;;;;;4916602;29;20051;-86
2021/01/20 01:27:17;;;;;;;21.23;9.95;;;7.20;99.90;;;;;;4917576;29;20056;-85
2021/01/20 01:29:42;;;;;;;19.08;10.27;;;7.20;99.90;;;;;;4932507;29;20060;-87
2021/01/20 01:32:08;;;;;;;14.80;8.48;;;7.30;99.90;;;;;;4917493;29;20102;-87
2021/01/20 01:34:34;;;;;;;20.17;9.90;;;7.20;99.90;;;;;;4916956;29;20048;-86
2021/01/20 01:37:00;;;;;;;17.38;10.10;;;7.20;99.90;;;;;;4933131;29;20044;-85
2021/01/20 01:39:25;;;;;;;19.40;7.88;;;7.20;99.90;;;;;;4932933;29;20059;-86
2021/01/20 01:41:51;;;;;;;16.13;9.13;;;7.20;99.90;;;;;;4917792;29;20051;-86
2021/01/20 01:44:18;;;;;;;17.42;9.50;;;7.20;99.90;;;;;;4903731;29;20858;-86
2021/01/20 01:46:44;;;;;;;16.83;10.05;;;7.20;99.90;;;;;;4931878;29;20047;-87
2021/01/20 01:49:10;;;;;;;18.52;9.05;;;7.20;99.90;;;;;;4933407;29;20140;-87
2021/01/20 01:51:36;;;;;;;18.40;9.00;;;7.30;99.90;;;;;;4919743;29;20443;-86
2021/01/20 01:54:03;;;;;;;16.65;8.70;;;7.20;99.90;;;;;;4935136;29;20056;-87
2021/01/20 01:56:28;;;;;;;16.10;9.10;;;7.30;99.90;;;;;;4932791;29;20043;-88
2021/01/20 01:58:55;;;;;;;18.88;8.60;;;7.30;99.90;;;;;;4916017;29;20462;-87
2021/01/20 02:01:21;;;;;;;20.75;8.75;;;7.30;99.90;;;;;;4939052;29;20074;-86
2021/01/20 02:03:51;;;;;;;13.85;8.48;;;7.30;99.90;;;;;;4951940;28;20043;-87
2021/01/20 02:06:17;;;;;;;24.48;8.93;;;7.40;99.90;;;;;;4932814;29;20136;-86
2021/01/20 02:08:51;;;;;;;17.08;9.07;;;7.30;99.90;;;;;;4916428;29;20075;-86
2021/01/20 02:11:21;;;;;;;16.88;9.70;;;7.40;99.90;;;;;;4920432;29;20514;-87
2021/01/20 02:14:10;;;;;;;11.32;7.80;;;7.30;99.90;;;;;;4931768;29;20056;-88
2021/01/20 02:16:42;;;;;;;17.03;8.03;;;7.40;99.90;;;;;;4917284;29;20052;-87
2021/01/20 02:19:11;;;;;;;20.88;8.95;;;7.40;99.90;;;;;;4934613;29;20067;-88
2021/01/20 02:21:54;;;;;;;15.70;8.45;;;7.40;99.90;;;;;;4931890;29;20050;-85
2021/01/20 02:24:26;;;;;;;21.65;9.98;;;7.40;99.90;;;;;;4948180;29;20094;-85
2021/01/20 02:27:19;;;;;;;21.73;8.65;;;7.40;99.90;;;;;;4947295;29;20032;-86
2021/01/20 02:30:05;;;;;;;18.80;8.95;;;7.40;99.90;;;;;;4931861;29;20394;-86
2021/01/20 02:32:32;;;;;;;14.25;9.18;;;7.40;99.90;;;;;;4949503;28;20095;-86
2021/01/20 02:34:59;;;;;;;17.92;9.90;;;7.40;99.90;;;;;;4915647;29;20374;-86
2021/01/20 02:37:25;;;;;;;18.73;8.98;;;7.40;99.90;;;;;;4932405;29;20047;-86
2021/01/20 02:39:52;;;;;;;11.45;8.75;;;7.40;99.90;;;;;;4926858;29;20425;-87
2021/01/20 02:42:18;;;;;;;13.80;8.45;;;7.40;99.90;;;;;;4899865;29;20044;-87
2021/01/20 02:44:44;;;;;;;18.60;10.20;;;7.30;99.90;;;;;;4881217;29;20107;-86
2021/01/20 02:47:10;;;;;;;18.92;10.20;;;7.30;99.90;;;;;;4915366;29;20490;-86
2021/01/20 02:49:37;;;;;;;17.05;8.98;;;7.30;99.90;;;;;;4931709;29;20064;-88
2021/01/20 02:52:31;;;;;;;18.40;10.25;;;7.30;99.90;;;;;;4916406;29;20051;-86
2021/01/20 02:54:59;;;;;;;15.00;9.93;;;7.30;99.90;;;;;;4927804;29;20587;-87
2021/01/20 02:57:28;;;;;;;22.75;10.40;;;7.30;99.90;;;;;;4947740;29;20548;-87
2021/01/20 02:59:56;;;;;;;20.40;10.15;;;7.30;99.90;;;;;;4931032;29;20067;-86
2021/01/20 03:02:23;;;;;;;25.08;11.07;;;7.30;99.90;;;;;;4947994;28;20079;-86
2021/01/20 03:04:52;;;;;;;19.98;10.90;;;7.30;99.90;;;;;;4931026;29;20050;-86
2021/01/20 03:07:20;;;;;;;21.23;12.05;;;7.30;99.90;;;;;;4939792;29;20066;-86
2021/01/20 03:09:47;;;;;;;16.08;8.80;;;7.30;99.90;;;;;;4931135;29;20047;-86
2021/01/20 03:12:13;;;;;;;19.52;10.38;;;7.20;99.90;;;;;;4932490;29;20043;-85
2021/01/20 03:14:41;;;;;;;18.75;9.65;;;7.20;99.90;;;;;;4932005;29;20047;-87
2021/01/20 03:17:06;;;;;;;17.42;10.73;;;7.20;99.90;;;;;;4930361;29;20506;-86
2021/01/20 03:19:32;;;;;;;20.83;10.60;;;7.20;99.90;;;;;;4931681;29;20071;-85
2021/01/20 03:21:58;;;;;;;19.48;10.50;;;7.20;99.90;;;;;;4914829;29;20641;-85
2021/01/20 03:24:24;;;;;;;19.95;9.68;;;7.20;99.90;;;;;;4922284;29;20048;-86
2021/01/20 03:26:49;;;;;;;14.70;9.65;;;7.10;99.90;;;;;;4931537;29;20059;-84
2021/01/20 03:29:15;;;;;;;17.77;10.90;;;7.20;99.90;;;;;;4944320;29;20047;-87
2021/01/20 03:31:41;;;;;;;19.65;10.13;;;7.10;99.90;;;;;;4931619;29;20375;-88
2021/01/20 03:34:07;;;;;;;17.92;10.35;;;7.10;99.90;;;;;;4914698;29;20047;-86
2021/01/20 03:36:32;;;;;;;21.58;11.02;;;7.00;99.90;;;;;;4946331;29;20067;-85
2021/01/20 03:38:58;;;;;;;20.35;10.48;;;7.10;99.90;;;;;;4913941;29;20043;-86
2021/01/20 03:41:24;;;;;;;22.67;10.90;;;7.10;99.90;;;;;;4914174;29;20044;-85
2021/01/20 03:43:50;;;;;;;18.83;10.70;;;7.10;99.90;;;;;;4930628;29;20061;-84
2021/01/20 03:46:16;;;;;;;19.38;9.48;;;7.20;99.90;;;;;;4932303;29;20043;-85
2021/01/20 03:48:41;;;;;;;16.08;9.95;;;7.10;99.90;;;;;;4929713;29;20501;-89
2021/01/20 03:51:07;;;;;;;17.10;10.60;;;7.10;99.90;;;;;;4936516;29;20044;-87
2021/01/20 03:53:33;;;;;;;20.20;11.10;;;7.10;99.90;;;;;;4930047;29;20122;-88
2021/01/20 03:55:59;;;;;;;18.45;11.68;;;7.10;99.90;;;;;;4898741;29;20056;-87
2021/01/20 03:58:25;;;;;;;21.67;11.00;;;7.10;99.90;;;;;;4927060;29;20048;-86
2021/01/20 04:00:51;;;;;;;20.23;9.95;;;7.10;99.90;;;;;;4914811;29;20063;-86
2021/01/20 04:03:17;;;;;;;23.95;11.13;;;7.10;99.90;;;;;;4934755;29;20127;-87
2021/01/20 04:05:43;;;;;;;16.02;9.98;;;7.10;99.90;;;;;;4898883;29;20126;-88
2021/01/20 04:08:08;;;;;;;18.17;10.43;;;7.20;99.90;;;;;;4914720;29;20044;-86
2021/01/20 04:10:34;;;;;;;15.98;10.07;;;7.20;99.90;;;;;;4911215;29;20047;-87
2021/01/20 04:13:00;;;;;;;19.60;10.30;;;7.20;99.90;;;;;;4920652;29;20050;-86
2021/01/20 04:15:26;;;;;;;14.82;8.20;;;7.20;99.90;;;;;;4921459;29;20044;-86
2021/01/20 04:17:52;;;;;;;17.25;10.18;;;7.20;99.90;;;;;;4937074;29;20477;-86
2021/01/20 04:20:18;;;;;;;25.55;10.50;;;7.20;99.90;;;;;;4920863;29;20047;-87
2021/01/20 04:22:43;;;;;;;17.58;10.15;;;7.20;99.90;;;;;;4921087;29;20047;-87
2021/01/20 04:25:11;;;;;;;17.83;9.88;;;7.20;99.90;;;;;;4936872;29;20386;-85
2021/01/20 04:27:38;;;;;;;16.92;10.50;;;7.20;99.90;;;;;;4937160;29;20051;-86
2021/01/20 04:30:06;;;;;;;17.58;9.48;;;7.20;99.90;;;;;;4936445;29;20044;-87
2021/01/20 04:32:32;;;;;;;22.08;11.57;;;7.20;99.90;;;;;;4937209;29;20051;-85
2021/01/20 04:34:57;;;;;;;17.15;10.35;;;7.30;99.90;;;;;;4936021;29;20209;-85
2021/01/20 04:37:23;;;;;;;21.23;10.98;;;7.20;99.90;;;;;;4936985;29;20055;-87
2021/01/20 04:39:49;;;;;;;21.88;10.43;;;7.20;99.90;;;;;;4936135;29;20096;-89
2021/01/20 04:42:15;;;;;;;16.58;9.90;;;7.20;99.90;;;;;;4920949;29;20060;-87
2021/01/20 04:44:41;;;;;;;17.65;10.68;;;7.20;99.90;;;;;;4921308;29;20525;-87
2021/01/20 04:47:07;;;;;;;18.98;10.23;;;7.30;99.90;;;;;;4937545;29;20196;-88
2021/01/20 04:49:37;;;;;;;19.60;10.07;;;7.20;99.90;;;;;;4908255;29;20043;-85
2021/01/20 04:52:04;;;;;;;17.90;10.45;;;7.30;99.90;;;;;;4923012;29;20537;-86
2021/01/20 04:54:32;;;;;;;16.67;9.10;;;7.30;99.90;;;;;;4921607;29;20040;-86
2021/01/20 04:56:58;;;;;;;18.23;9.57;;;7.20;99.90;;;;;;4935656;29;20106;-86
2021/01/20 04:59:33;;;;;;;22.10;9.70;;;7.30;99.90;;;;;;4914243;29;20047;-86
2021/01/20 05:01:59;;;;;;;17.33;8.75;;;7.20;99.90;;;;;;4939874;29;20043;-84
2021/01/20 05:04:24;;;;;;;19.35;9.98;;;7.30;99.90;;;;;;4952732;29;20332;-86
2021/01/20 05:06:50;;;;;;;14.93;9.45;;;7.30;99.90;;;;;;4936047;29;20054;-88
2021/01/20 05:09:17;;;;;;;18.90;10.45;;;7.30;99.90;;;;;;4936643;29;20042;-85
2021/01/20 05:11:44;;;;;;;16.38;8.88;;;7.20;99.90;;;;;;4936406;29;20058;-85
2021/01/20 05:14:15;;;;;;;23.80;9.93;;;7.20;99.90;;;;;;4916263;29;20048;-85
2021/01/20 05:16:44;;;;;;;18.27;9.93;;;7.20;99.90;;;;;;4938112;29;20050;-85
2021/01/20 05:19:10;;;;;;;14.85;9.30;;;7.20;99.90;;;;;;4935955;29;20778;-84
2021/01/20 05:21:36;;;;;;;16.13;8.93;;;7.20;99.90;;;;;;4934919;29;20035;-85
2021/01/20 05:24:22;;;;;;;19.92;9.93;;;7.20;99.90;;;;;;4917051;29;20410;-85
2021/01/20 05:26:49;;;;;;;13.55;8.35;;;7.20;99.90;;;;;;4933130;29;20126;-85
2021/01/20 05:29:16;;;;;;;16.88;9.88;;;7.20;99.90;;;;;;4932569;29;20127;-86
2021/01/20 05:31:43;;;;;;;13.77;9.57;;;7.20;99.90;;;;;;4902331;29;20497;-85
2021/01/20 05:34:29;;;;;;;14.98;9.75;;;7.20;99.90;;;;;;4932023;29;20122;-86
2021/01/20 05:37:11;;;;;;;20.95;9.45;;;7.20;99.90;;;;;;4933054;29;20046;-89
2021/01/20 05:39:38;;;;;;;18.33;8.90;;;7.10;99.90;;;;;;4949119;29;20055;-86
2021/01/20 05:42:10;;;;;;;16.95;9.65;;;7.20;99.90;;;;;;4917165;29;20086;-86
2021/01/20 05:44:38;;;;;;;15.45;9.82;;;7.20;99.90;;;;;;4933049;29;20130;-87
2021/01/20 05:47:17;;;;;;;15.63;9.10;;;7.20;99.90;;;;;;4931878;29;20501;-85
2021/01/20 05:49:43;;;;;;;13.07;8.32;;;7.20;99.90;;;;;;4949260;29;20044;-85
2021/01/20 05:52:14;;;;;;;15.32;9.18;;;7.20;99.90;;;;;;4931938;29;20047;-86
2021/01/20 05:54:40;;;;;;;;;;;7.20;99.90;;;;;;4918089;29;20056;-84
2021/01/20 05:57:22;;;;;;;14.13;8.70;;;7.30;99.90;;;;;;4932138;29;19929;-86
2021/01/20 05:59:49;;;;;;;12.52;9.63;;;7.30;99.90;;;;;;4932727;29;20035;-86
2021/01/20 06:02:17;;;;;;;15.38;8.75;;;7.30;99.90;;;;;;4953709;28;20694;-85
2021/01/20 06:04:43;;;;;;;16.98;9.63;;;7.30;99.90;;;;;;4932991;29;20115;-86
2021/01/20 06:07:12;;;;;;;14.38;9.25;;;7.40;99.90;;;;;;4933104;29;20067;-84
2021/01/20 06:09:39;;;;;;;13.75;9.35;;;7.30;99.90;;;;;;4933929;29;20118;-85
2021/01/20 06:12:07;;;;;;;12.07;8.70;;;7.40;99.90;;;;;;4932112;29;20036;-85
2021/01/20 06:14:33;;;;;;;16.67;9.30;;;7.40;99.90;;;;;;4934081;29;20042;-85
2021/01/20 06:17:28;;;;;;;14.30;8.55;;;7.40;99.90;;;;;;4933422;29;20838;-87
2021/01/20 06:20:00;;;;;;;12.30;8.35;;;7.40;99.90;;;;;;4930062;29;20063;-85
2021/01/20 06:22:27;;;;;;;19.02;8.15;;;7.40;99.90;;;;;;4948536;29;20052;-86
2021/01/20 06:25:08;;;;;;;16.63;7.97;;;7.40;99.90;;;;;;4932696;29;20040;-86
2021/01/20 06:27:42;;;;;;;10.55;8.52;;;7.40;99.90;;;;;;4933790;29;20043;-86
2021/01/20 06:30:31;;;;;;;13.38;8.27;;;7.40;99.90;;;;;;4932881;29;20039;-86
2021/01/20 06:32:58;;;;;;;16.80;8.18;;;7.40;99.90;;;;;;4933243;29;20043;-85
2021/01/20 06:35:37;;;;;;;14.45;8.02;;;7.40;99.90;;;;;;4948345;29;20483;-85
2021/01/20 06:38:03;;;;;;;12.57;7.45;;;7.40;99.90;;;;;;4931423;29;20035;-86
2021/01/20 06:40:32;;;;;;;14.65;8.40;;;7.40;99.90;;;;;;4933199;29;20062;-86
2021/01/20 06:42:57;;;;;;;10.45;7.25;;;7.50;99.90;;;;;;4932039;29;20134;-85
2021/01/20 06:45:27;;;;;;;19.02;7.63;;;7.40;99.90;;;;;;4931211;29;20620;-85
2021/01/20 06:47:58;;;;;;;11.15;6.78;;;7.40;99.90;;;;;;4932169;29;20051;-85
2021/01/20 06:50:29;;;;;;;10.85;6.93;;;7.50;99.90;;;;;;4931808;29;20123;-85
2021/01/20 06:53:06;;;;;;;9.93;6.53;;;7.50;99.90;;;;;;4948147;29;20098;-85
2021/01/20 06:55:36;;;;;;;11.80;7.45;;;7.50;99.90;;;;;;4932283;29;20111;-85
2021/01/20 06:58:23;;;;;;;9.30;6.30;;;7.40;99.90;;;;;;4915728;29;20108;-88
2021/01/20 07:00:58;;;;;;;12.25;7.32;;;7.50;99.90;;;;;;4906838;29;20044;-85
2021/01/20 07:03:44;;;;;;;18.60;7.47;;;7.50;99.90;;;;;;4936303;29;20590;-84
2021/01/20 07:06:35;;;;;;;10.65;6.85;;;7.50;99.90;;;;;;4928301;29;20047;-84
2021/01/20 07:09:02;;;;;;;10.13;6.63;;;7.50;99.90;;;;;;4924393;29;20043;-89
2021/01/20 07:11:28;;;;;;;11.32;6.07;;;7.50;99.90;;;;;;4930950;29;20079;-86
2021/01/20 07:13:54;;;;;;;10.85;6.68;;;7.50;99.90;;;;;;4928418;29;20079;-85
2021/01/20 07:16:21;;;;;;;9.07;5.90;;;7.50;99.90;;;;;;4913420;29;20040;-85
2021/01/20 07:18:52;;;;;;;10.15;6.10;;;7.50;99.90;;;;;;4930241;29;20493;-84
2021/01/20 07:21:18;;;;;;;9.93;6.75;;;7.60;99.90;;;;;;4945730;29;20086;-84
2021/01/20 07:23:44;;;;;;;11.45;6.75;;;7.50;99.90;;;;;;4930932;29;20079;-84
2021/01/20 07:26:13;;;;;;;10.27;6.45;;;7.60;99.90;;;;;;4930503;29;20043;-86
2021/01/20 07:28:41;;;;;;;;;;;7.60;99.90;;;;;;4931953;29;20135;-83
2021/01/20 07:31:12;;;;;;;14.52;6.80;;;7.60;99.90;;;;;;4888847;29;20025;-85
2021/01/20 07:33:51;;;;;;;10.18;6.05;;;7.50;99.90;;;;;;4916050;29;20066;-84
2021/01/20 07:36:24;;;;;;;12.02;6.68;;;7.50;99.90;;;;;;4930240;29;20513;-84
2021/01/20 07:38:59;;;;;;;16.05;6.38;;;7.50;99.90;;;;;;4915951;29;20454;-84
2021/01/20 07:41:30;;;;;;;14.75;7.05;;;7.60;99.90;;;;;;4929513;29;20062;-85
2021/01/20 07:44:14;;;;;;;12.63;7.05;;;7.60;99.90;;;;;;4911376;29;20118;-85
2021/01/20 07:46:40;;;;;;;11.70;6.57;;;7.50;99.90;;;;;;4914551;29;20454;-84
2021/01/20 07:49:13;;;;;;;8.88;6.53;;;7.60;99.90;;;;;;4930753;29;20070;-85
2021/01/20 07:51:39;;;;;;;12.70;6.60;;;7.60;99.90;;;;;;4930153;29;20051;-85
2021/01/20 07:54:07;;;;;;;11.30;6.80;;;7.60;99.90;;;;;;4929908;29;20043;-84
2021/01/20 07:56:33;;;;;;;14.70;6.72;;;7.60;99.90;;;;;;4929526;29;20426;-85
2021/01/20 07:59:17;;;;;;;10.15;6.65;;;7.50;99.90;;;;;;4913773;29;20067;-84
2021/01/20 08:01:42;;;;;;;10.70;7.25;;;7.50;99.90;;;;;;4906281;29;20056;-84
2021/01/20 08:04:38;;;;;;;16.08;7.50;;;7.50;99.90;;;;;;4899268;29;20454;-85
2021/01/20 08:07:06;;;;;;;11.38;6.85;;;7.50;99.90;;;;;;4906134;29;20522;-84
2021/01/20 08:09:51;;;;;;;9.15;7.10;;;7.50;99.90;;;;;;4919316;29;20103;-84
2021/01/20 08:12:36;;;;;;;16.10;6.78;;;7.40;99.90;;;;;;4943213;29;20484;-84
2021/01/20 08:15:03;;;;;;;11.65;7.28;;;7.50;99.90;;;;;;4908538;29;20040;-84
2021/01/20 08:17:32;;;;;;;13.02;7.28;;;7.40;99.90;;;;;;4910236;29;20824;-84
2021/01/20 08:19:58;;;;;;;14.73;7.80;;;7.40;99.90;;;;;;4899062;29;20048;-85
2021/01/20 08:22:24;;;;;;;13.48;7.55;;;7.40;99.90;;;;;;4930750;29;20047;-85
2021/01/20 08:24:51;;;;;;;15.68;7.20;;;7.40;99.90;;;;;;4898055;29;20047;-85
2021/01/20 08:27:28;;;;;;;14.73;8.27;;;7.30;99.90;;;;;;4913975;29;20040;-84
2021/01/20 08:29:56;;;;;;;11.73;7.90;;;7.30;99.90;;;;;;4914694;29;20490;-85
2021/01/20 08:32:22;;;;;;;11.45;7.30;;;7.30;99.90;;;;;;4930097;29;20127;-86
2021/01/20 08:34:49;;;;;;;13.65;7.43;;;7.30;99.90;;;;;;4914511;29;20468;-85
2021/01/20 08:37:23;;;;;;;10.65;7.53;;;7.30;99.90;;;;;;4913764;29;20426;-87
2021/01/20 08:40:06;;;;;;;12.18;6.50;;;7.30;99.90;;;;;;4915097;29;20056;-85
2021/01/20 08:42:35;;;;;;;11.57;6.88;;;7.30;99.90;;;;;;4929205;29;20039;-86
2021/01/20 08:45:19;;;;;;;12.77;7.82;;;7.30;99.90;;;;;;4930379;29;20091;-85
2021/01/20 08:47:50;;;;;;;9.85;6.35;;;7.30;99.90;;;;;;4930059;29;20068;-85
2021/01/20 08:50:40;;;;;;;9.45;5.85;;;7.40;99.90;;;;;;4929277;29;20044;-84
2021/01/20 08:53:11;;;;;;;9.52;6.22;;;7.40;99.90;;;;;;4935666;29;20406;-87
2021/01/20 08:55:49;;;;;;;12.00;6.82;;;7.40;99.90;;;;;;4942757;29;20094;-86
2021/01/20 08:58:31;;;;;;;9.90;6.68;;;7.40;99.90;;;;;;4946743;29;20032;-87
2021/01/20 09:01:03;;;;;;;9.23;5.53;;;7.50;99.90;;;;;;4951108;29;20118;-86
2021/01/20 09:03:30;;;;;;;13.95;6.75;;;7.50;99.90;;;;;;4937261;28;20520;-86
2021/01/20 09:05:57;;;;;;;11.80;6.38;;;7.50;99.90;;;;;;4930961;29;20533;-86
2021/01/20 09:08:25;;;;;;;9.00;5.90;;;7.50;99.90;;;;;;4932658;29;20058;-87
2021/01/20 09:10:51;;;;;;;8.93;5.93;;;7.60;99.90;;;;;;4943441;29;20052;-88
2021/01/20 09:13:18;;;;;;;11.40;5.45;;;7.60;99.90;;;;;;4945623;29;20079;-86
2021/01/20 09:15:49;;;;;;;9.30;5.38;;;7.70;99.90;;;;;;4945799;29;20164;-86
2021/01/20 09:18:16;;;;;;;8.43;5.57;;;7.80;99.90;;;;;;4946605;29;20036;-88
2021/01/20 09:20:42;;;;;;;8.02;5.30;;;7.80;99.90;;;;;;4946133;29;20056;-87
2021/01/20 09:23:09;;;;;;;11.65;5.97;;;7.80;99.90;;;;;;4914718;29;20043;-86
2021/01/20 09:25:35;;;;;;;10.88;5.50;;;7.80;99.90;;;;;;4929617;29;20051;-87
2021/01/20 09:28:01;;;;;;;6.20;4.78;;;7.90;99.90;;;;;;4931992;29;20486;-85
2021/01/20 09:30:27;;;;;;;9.30;5.05;;;7.90;99.90;;;;;;4932779;29;20211;-85
2021/01/20 09:32:53;;;;;;;9.93;5.45;;;8.00;99.90;;;;;;4935152;29;20047;-86
2021/01/20 09:35:20;;;;;;;8.68;4.78;;;8.00;99.90;;;;;;4933130;29;20054;-88
2021/01/20 09:37:47;;;;;;;7.82;5.25;;;8.00;99.90;;;;;;4948594;29;20044;-87
2021/01/20 09:40:15;;;;;;;9.90;5.40;;;8.00;99.90;;;;;;4911894;29;20056;-87
2021/01/20 09:42:42;;;;;;;6.10;4.38;;;8.10;99.90;;;;;;4929750;29;20457;-87
2021/01/20 09:45:10;;;;;;;6.82;4.85;;;8.10;99.90;;;;;;4932743;29;20460;-87
2021/01/20 09:47:41;;;;;;;8.52;4.43;;;8.10;99.90;;;;;;4932986;29;20066;-85
2021/01/20 09:50:10;;;;;;;5.60;4.38;;;8.10;99.90;;;;;;4912391;29;20059;-84
2021/01/20 09:52:36;;;;;;;6.05;4.63;;;8.10;99.90;;;;;;4930667;29;20500;-85
2021/01/20 09:55:03;;;;;;;4.22;3.53;;;8.10;99.90;;;;;;4932622;29;20480;-85
2021/01/20 09:57:29;;;;;;;13.75;6.63;;;8.10;99.90;;;;;;4930877;29;20090;-85
2021/01/20 09:59:55;;;;;;;10.60;4.75;;;8.10;99.90;;;;;;4897073;29;20063;-87
2021/01/20 10:02:20;;;;;;;6.95;4.38;;;8.20;99.90;;;;;;4932501;29;20040;-88
2021/01/20 10:04:46;;;;;;;5.60;3.95;;;8.20;99.90;;;;;;4914697;29;20059;-86
2021/01/20 10:07:13;;;;;;;4.03;3.53;;;8.20;99.90;;;;;;4915027;29;20042;-87
2021/01/20 10:09:39;;;;;;;6.82;4.50;;;8.30;99.90;;;;;;4931685;29;20044;-87
2021/01/20 10:12:07;;;;;;;5.50;3.88;;;8.30;99.90;;;;;;4931306;29;20122;-86
2021/01/20 10:14:33;;;;;;;8.02;4.38;;;8.30;99.90;;;;;;4930202;29;20053;-85
2021/01/20 10:16:59;;;;;;;6.38;4.35;;;8.40;99.90;;;;;;4932149;29;20119;-87
2021/01/20 10:19:25;;;;;;;5.60;3.95;;;8.40;99.90;;;;;;4946033;29;20066;-89
2021/01/20 10:21:51;;;;;;;5.13;3.83;;;8.40;99.90;;;;;;4931992;29;20490;-85
2021/01/20 10:24:17;;;;;;;4.60;3.83;;;8.40;99.90;;;;;;4930369;29;20556;-89
2021/01/20 10:26:44;;;;;;;7.38;3.85;;;8.50;99.90;;;;;;4929798;29;20063;-88
2021/01/20 10:29:10;;;;;;;7.53;3.60;;;8.50;99.90;;;;;;4931415;29;20512;-86
2021/01/20 10:31:37;;;;;;;3.78;3.15;;;8.50;99.90;;;;;;4928195;29;20051;-87
2021/01/20 10:34:04;;;;;;;6.13;3.40;;;8.50;99.90;;;;;;4931474;29;20094;-86
2021/01/20 10:36:32;;;;;;;5.28;4.10;;;8.60;99.90;;;;;;4930838;29;20044;-87
2021/01/20 10:38:58;;;;;;;4.22;3.50;;;8.60;99.90;;;;;;4930333;29;20134;-87
2021/01/20 10:41:25;;;;;;;5.85;3.35;;;8.60;99.90;;;;;;4929827;29;20063;-87
2021/01/20 10:43:52;;;;;;;3.47;3.17;;;8.60;99.90;;;;;;4929896;29;20070;-87
2021/01/20 10:46:19;;;;;;;5.35;3.65;;;8.60;99.90;;;;;;4910611;29;20047;-88
2021/01/20 10:48:45;;;;;;;3.78;3.00;;;8.70;99.90;;;;;;4929846;29;20252;-87
2021/01/20 10:51:11;;;;;;;4.85;3.20;;;8.70;99.90;;;;;;4930460;29;20850;-87
2021/01/20 10:53:40;;;;;;;3.88;2.85;;;8.80;99.90;;;;;;4930704;29;20052;-87
2021/01/20 10:56:07;;;;;;;4.43;2.97;;;8.80;99.90;;;;;;4914186;29;20047;-86
2021/01/20 10:58:33;;;;;;;5.95;2.83;;;8.90;99.90;;;;;;4928778;29;20040;-86
2021/01/20 11:00:59;;;;;;;4.80;3.05;;;8.90;99.90;;;;;;4930109;29;20081;-86
2021/01/20 11:03:25;;;;;;;4.20;2.83;;;8.90;99.90;;;;;;4913863;29;20047;-86
2021/01/20 11:05:51;;;;;;;6.32;3.10;;;9.00;99.90;;;;;;4928361;29;20057;-85
2021/01/20 11:08:17;;;;;;;2.67;2.47;;;9.00;99.90;;;;;;4929434;29;20047;-87
2021/01/20 11:10:43;;;;;;;2.88;2.50;;;9.10;99.90;;;;;;4897398;29;20421;-85
2021/01/20 11:13:09;;;;;;;3.35;2.92;;;9.10;99.90;;;;;;4931189;29;20486;-85
2021/01/20 11:15:39;;;;;;;4.97;3.10;;;9.10;99.90;;;;;;4911701;29;20051;-86
2021/01/20 11:18:06;;;;;;;4.45;2.65;;;9.10;99.90;;;;;;4913239;29;20122;-85
2021/01/20 11:20:33;;;;;;;3.22;2.55;;;9.10;99.90;;;;;;4928283;29;20044;-86
2021/01/20 11:22:59;;;;;;;3.28;2.83;;;9.10;99.90;;;;;;4926648;29;20119;-86
2021/01/20 11:25:26;;;;;;;3.13;2.83;;;9.20;99.90;;;;;;4927064;29;20517;-85
2021/01/20 11:27:51;;;;;;;3.72;2.75;;;9.20;99.90;;;;;;4929964;29;20036;-84
2021/01/20 11:30:21;;;;;;;3.25;2.58;;;9.20;99.90;;;;;;4930941;29;20111;-85
2021/01/20 11:32:46;;;;;;;5.20;2.65;;;9.30;99.90;;;;;;4931216;29;20542;-85
2021/01/20 11:35:13;;;;;;;2.83;2.53;;;9.30;99.90;;;;;;4932535;29;20058;-85
2021/01/20 11:37:40;;;;;;;2.58;2.20;;;9.40;99.90;;;;;;4931446;29;20130;-85
2021/01/20 11:40:07;;;;;;;4.18;2.25;;;9.30;99.90;;;;;;4931840;29;20052;-86
2021/01/20 11:42:33;;;;;;;3.05;2.45;;;9.40;99.90;;;;;;4932051;29;20039;-86
2021/01/20 11:45:03;;;;;;;2.25;2.10;;;9.40;99.90;;;;;;4927553;29;20127;-85
2021/01/20 11:47:28;;;;;;;2.60;2.23;;;9.40;99.90;;;;;;4924253;29;20816;-86
2021/01/20 11:49:54;;;;;;;4.05;2.30;;;9.50;99.90;;;;;;4928488;29;20295;-86
2021/01/20 11:52:21;;;;;;;3.17;2.20;;;9.50;99.90;;;;;;4929411;29;20044;-85
2021/01/20 11:54:47;;;;;;;3.38;2.17;;;9.50;99.90;;;;;;4945322;29;20054;-84
2021/01/20 11:57:14;;;;;;;2.60;2.30;;;9.50;99.90;;;;;;4930622;29;20508;-85
2021/01/20 11:59:40;;;;;;;3.90;2.45;;;9.50;99.90;;;;;;4914025;29;20581;-85
2021/01/20 12:02:07;;;;;;;5.15;2.13;;;9.50;99.90;;;;;;4937704;29;20070;-84
2021/01/20 12:04:33;;;;;;;2.10;1.90;;;9.50;99.90;;;;;;4930406;29;20135;-85
2021/01/20 12:06:58;;;;;;;2.42;2.20;;;9.50;99.90;;;;;;4929506;29;20521;-85
2021/01/20 12:09:24;;;;;;;2.15;1.95;;;9.50;99.90;;;;;;4929672;29;20115;-85
2021/01/20 12:11:51;;;;;;;3.47;1.95;;;9.50;99.90;;;;;;4930575;29;20090;-85
2021/01/20 12:14:17;;;;;;;1.88;1.70;;;9.50;99.90;;;;;;4931967;29;20095;-86
2021/01/20 12:16:43;;;;;;;2.95;2.28;;;9.50;99.90;;;;;;4929547;29;20043;-85
2021/01/20 12:19:09;;;;;;;2.10;1.90;;;9.50;99.90;;;;;;4930463;29;20044;-85
2021/01/20 12:21:35;;;;;;;3.92;1.73;;;9.60;99.90;;;;;;4930166;29;20048;-85
2021/01/20 12:24:01;;;;;;;3.35;2.30;;;9.60;99.90;;;;;;4929920;29;20050;-85
2021/01/20 12:26:27;;;;;;;2.65;2.03;;;9.70;99.90;;;;;;4930819;29;20073;-85
2021/01/20 12:28:53;;;;;;;3.63;1.67;;;9.70;99.90;;;;;;4929950;29;20055;-84
2021/01/20 12:31:18;;;;;;;5.43;2.13;;;9.80;99.90;;;;;;4931816;29;20042;-84
2021/01/20 12:33:44;;;;;;;1.80;1.70;;;9.90;99.90;;;;;;4933614;29;20083;-85
2021/01/20 12:36:11;;;;;;;4.53;1.70;;;10.00;99.90;;;;;;4918519;29;20047;-83
2021/01/20 12:38:37;;;;;;;2.25;1.90;;;10.00;99.90;;;;;;4935713;29;20067;-85
2021/01/20 12:41:03;;;;;;;3.35;1.73;;;10.00;99.90;;;;;;4933607;29;20063;-84
2021/01/20 12:43:29;;;;;;;2.53;1.80;;;10.10;99.90;;;;;;4925602;29;20038;-85
2021/01/20 12:45:54;;;;;;;2.47;2.03;;;10.10;99.90;;;;;;4933618;29;20119;-85
2021/01/20 12:48:20;;;;;;;2.15;1.73;;;10.10;99.90;;;;;;4902447;29;20051;-85
2021/01/20 12:50:47;;;;;;;3.10;1.73;;;10.10;99.90;;;;;;4934377;29;20474;-85
2021/01/20 12:53:13;;;;;;;3.08;1.60;;;10.10;99.90;;;;;;4934844;29;20046;-85
2021/01/20 12:55:39;;;;;;;2.65;1.67;;;10.10;99.90;;;;;;4933913;29;20075;-85